sensor_id;sensor_type;location;lat;lon;timestamp;pressure;altitude;pressure_sealevel;temperature;humidity
62031;BME280;62035;52.094;5.112;2022-07-19T00:00:36;101858.44;;;25.35;84.82
62031;BME280;62035;52.094;5.112;2022-07-19T00:03:03;101858.44;;;25.35;84.47
62031;BME280;62035;52.094;5.112;2022-07-19T00:05:31;101864.09;;;25.33;83.95
62031;BME280;62035;52.094;5.112;2022-07-19T00:07:59;101861.50;;;25.45;82.38
62031;BME280;62035;52.094;5.112;2022-07-19T00:10:26;101864.19;;;25.51;83.26
62031;BME280;62035;52.094;5.112;2022-07-19T00:12:55;101864.66;;;25.42;82.89
62031;BME280;62035;52.094;5.112;2022-07-19T00:15:23;101858.25;;;25.30;84.16
62031;BME280;62035;52.094;5.112;2022-07-19T00:17:51;101865.56;;;25.36;84.43
62031;BME280;62035;52.094;5.112;2022-07-19T00:20:20;101862.09;;;25.22;85.63
62031;BME280;62035;52.094;5.112;2022-07-19T00:22:48;101864.69;;;25.17;85.97
62031;BME280;62035;52.094;5.112;2022-07-19T00:25:16;101862.75;;;24.86;88.09
62031;BME280;62035;52.094;5.112;2022-07-19T00:27:44;101861.38;;;25.08;86.80
62031;BME280;62035;52.094;5.112;2022-07-19T00:30:13;101863.06;;;25.09;86.73
62031;BME280;62035;52.094;5.112;2022-07-19T00:32:40;101853.88;;;25.04;87.49
62031;BME280;62035;52.094;5.112;2022-07-19T00:35:09;101860.16;;;25.04;87.36
62031;BME280;62035;52.094;5.112;2022-07-19T00:37:37;101861.03;;;24.91;88.37
62031;BME280;62035;52.094;5.112;2022-07-19T00:40:05;101854.97;;;24.89;88.29
62031;BME280;62035;52.094;5.112;2022-07-19T00:42:34;101858.34;;;24.85;88.99
62031;BME280;62035;52.094;5.112;2022-07-19T00:45:02;101864.38;;;24.93;89.25
62031;BME280;62035;52.094;5.112;2022-07-19T00:47:31;101861.91;;;24.85;89.88
62031;BME280;62035;52.094;5.112;2022-07-19T00:49:58;101862.91;;;24.91;89.78
62031;BME280;62035;52.094;5.112;2022-07-19T00:52:27;101854.53;;;24.99;89.42
62031;BME280;62035;52.094;5.112;2022-07-19T00:54:56;101855.28;;;24.75;90.75
62031;BME280;62035;52.094;5.112;2022-07-19T00:57:26;101856.53;;;24.79;90.84
62031;BME280;62035;52.094;5.112;2022-07-19T00:59:54;101862.03;;;24.66;92.50
62031;BME280;62035;52.094;5.112;2022-07-19T01:02:24;101858.94;;;24.55;93.01
62031;BME280;62035;52.094;5.112;2022-07-19T01:04:54;101855.44;;;24.80;92.10
62031;BME280;62035;52.094;5.112;2022-07-19T01:07:21;101860.44;;;24.83;91.79
62031;BME280;62035;52.094;5.112;2022-07-19T01:09:50;101863.19;;;24.83;91.56
62031;BME280;62035;52.094;5.112;2022-07-19T01:12:18;101863.91;;;24.65;92.62
62031;BME280;62035;52.094;5.112;2022-07-19T01:14:48;101861.84;;;24.60;93.48
62031;BME280;62035;52.094;5.112;2022-07-19T01:17:16;101854.72;;;24.66;92.96
62031;BME280;62035;52.094;5.112;2022-07-19T01:19:44;101853.47;;;24.62;93.63
62031;BME280;62035;52.094;5.112;2022-07-19T01:22:13;101848.00;;;24.69;93.89
62031;BME280;62035;52.094;5.112;2022-07-19T01:24:40;101850.16;;;24.53;95.33
62031;BME280;62035;52.094;5.112;2022-07-19T01:27:08;101840.56;;;24.44;95.37
62031;BME280;62035;52.094;5.112;2022-07-19T01:29:36;101850.91;;;24.29;95.88
62031;BME280;62035;52.094;5.112;2022-07-19T01:32:06;101847.56;;;24.27;95.95
62031;BME280;62035;52.094;5.112;2022-07-19T01:34:33;101844.31;;;24.50;93.32
62031;BME280;62035;52.094;5.112;2022-07-19T01:37:01;101845.09;;;24.64;91.65
62031;BME280;62035;52.094;5.112;2022-07-19T01:39:30;101845.91;;;24.64;92.10
62031;BME280;62035;52.094;5.112;2022-07-19T01:41:58;101849.72;;;24.56;92.53
62031;BME280;62035;52.094;5.112;2022-07-19T01:44:26;101843.88;;;24.53;92.37
62031;BME280;62035;52.094;5.112;2022-07-19T01:46:53;101839.25;;;24.60;91.47
62031;BME280;62035;52.094;5.112;2022-07-19T01:49:21;101843.22;;;24.57;90.66
62031;BME280;62035;52.094;5.112;2022-07-19T01:51:48;101840.34;;;24.46;91.67
62031;BME280;62035;52.094;5.112;2022-07-19T01:54:16;101843.16;;;24.33;91.47
62031;BME280;62035;52.094;5.112;2022-07-19T01:56:45;101841.78;;;24.55;88.92
62031;BME280;62035;52.094;5.112;2022-07-19T01:59:12;101834.84;;;24.59;88.39
62031;BME280;62035;52.094;5.112;2022-07-19T02:01:40;101838.41;;;24.59;88.20
62031;BME280;62035;52.094;5.112;2022-07-19T02:04:07;101839.84;;;24.62;88.44
62031;BME280;62035;52.094;5.112;2022-07-19T02:06:35;101840.56;;;24.44;89.49
62031;BME280;62035;52.094;5.112;2022-07-19T02:09:02;101831.84;;;24.36;90.26
62031;BME280;62035;52.094;5.112;2022-07-19T02:11:30;101835.22;;;24.31;91.95
62031;BME280;62035;52.094;5.112;2022-07-19T02:14:06;101830.09;;;24.41;92.38
62031;BME280;62035;52.094;5.112;2022-07-19T02:16:36;101832.06;;;24.34;92.49
62031;BME280;62035;52.094;5.112;2022-07-19T02:19:05;101821.94;;;24.41;92.79
62031;BME280;62035;52.094;5.112;2022-07-19T02:21:35;101828.00;;;24.43;92.84
62031;BME280;62035;52.094;5.112;2022-07-19T02:24:04;101820.56;;;24.32;93.67
62031;BME280;62035;52.094;5.112;2022-07-19T02:26:33;101821.59;;;24.31;94.23
62031;BME280;62035;52.094;5.112;2022-07-19T02:29:02;101812.19;;;24.27;94.31
62031;BME280;62035;52.094;5.112;2022-07-19T02:31:31;101817.00;;;24.32;94.50
62031;BME280;62035;52.094;5.112;2022-07-19T02:33:59;101817.41;;;24.35;94.56
62031;BME280;62035;52.094;5.112;2022-07-19T02:36:27;101816.78;;;24.33;94.76
62031;BME280;62035;52.094;5.112;2022-07-19T02:38:54;101814.31;;;24.25;95.22
62031;BME280;62035;52.094;5.112;2022-07-19T02:41:24;101812.59;;;24.31;95.28
62031;BME280;62035;52.094;5.112;2022-07-19T02:43:52;101818.25;;;24.22;95.66
62031;BME280;62035;52.094;5.112;2022-07-19T02:46:19;101812.59;;;24.37;95.20
62031;BME280;62035;52.094;5.112;2022-07-19T02:48:48;101809.69;;;24.25;95.90
62031;BME280;62035;52.094;5.112;2022-07-19T02:51:16;101806.13;;;24.25;96.27
62031;BME280;62035;52.094;5.112;2022-07-19T02:53:43;101809.72;;;24.06;97.71
62031;BME280;62035;52.094;5.112;2022-07-19T02:56:11;101804.06;;;24.14;97.84
62031;BME280;62035;52.094;5.112;2022-07-19T02:58:38;101810.34;;;24.14;98.16
62031;BME280;62035;52.094;5.112;2022-07-19T03:01:06;101815.56;;;24.16;98.33
62031;BME280;62035;52.094;5.112;2022-07-19T03:03:34;101806.97;;;24.25;98.11
62031;BME280;62035;52.094;5.112;2022-07-19T03:06:15;101804.09;;;24.01;99.49
62031;BME280;62035;52.094;5.112;2022-07-19T03:08:44;101810.59;;;24.00;99.56
62031;BME280;62035;52.094;5.112;2022-07-19T03:11:12;101810.66;;;23.86;100.00
62031;BME280;62035;52.094;5.112;2022-07-19T03:13:40;101809.19;;;23.90;100.00
62031;BME280;62035;52.094;5.112;2022-07-19T03:16:07;101814.75;;;24.02;100.00
62031;BME280;62035;52.094;5.112;2022-07-19T03:18:35;101808.53;;;23.95;100.00
62031;BME280;62035;52.094;5.112;2022-07-19T03:21:03;101807.50;;;23.89;100.00
62031;BME280;62035;52.094;5.112;2022-07-19T03:23:33;101807.06;;;23.92;100.00
62031;BME280;62035;52.094;5.112;2022-07-19T03:26:02;101809.84;;;23.73;100.00
62031;BME280;62035;52.094;5.112;2022-07-19T03:28:30;101801.28;;;23.69;100.00
62031;BME280;62035;52.094;5.112;2022-07-19T03:30:58;101800.03;;;23.65;100.00
62031;BME280;62035;52.094;5.112;2022-07-19T03:33:25;101796.88;;;23.68;100.00
62031;BME280;62035;52.094;5.112;2022-07-19T03:35:53;101796.44;;;23.71;100.00
62031;BME280;62035;52.094;5.112;2022-07-19T03:38:21;101804.00;;;23.63;100.00
62031;BME280;62035;52.094;5.112;2022-07-19T03:40:50;101801.06;;;23.64;100.00
62031;BME280;62035;52.094;5.112;2022-07-19T03:43:19;101812.34;;;23.61;100.00
62031;BME280;62035;52.094;5.112;2022-07-19T03:45:49;101805.25;;;23.40;100.00
62031;BME280;62035;52.094;5.112;2022-07-19T03:48:16;101798.59;;;23.56;100.00
62031;BME280;62035;52.094;5.112;2022-07-19T03:50:45;101799.81;;;23.60;100.00
62031;BME280;62035;52.094;5.112;2022-07-19T03:53:12;101803.34;;;23.67;100.00
62031;BME280;62035;52.094;5.112;2022-07-19T03:55:40;101801.06;;;23.51;100.00
62031;BME280;62035;52.094;5.112;2022-07-19T03:58:09;101803.59;;;23.46;100.00
62031;BME280;62035;52.094;5.112;2022-07-19T04:00:36;101796.50;;;23.45;100.00
62031;BME280;62035;52.094;5.112;2022-07-19T04:03:04;101804.03;;;23.56;100.00
62031;BME280;62035;52.094;5.112;2022-07-19T04:05:32;101790.41;;;23.49;100.00
62031;BME280;62035;52.094;5.112;2022-07-19T04:07:59;101800.00;;;23.72;100.00
62031;BME280;62035;52.094;5.112;2022-07-19T04:10:27;101783.72;;;23.65;100.00
62031;BME280;62035;52.094;5.112;2022-07-19T04:12:54;101802.09;;;23.70;100.00
62031;BME280;62035;52.094;5.112;2022-07-19T04:15:23;101798.13;;;23.72;100.00
62031;BME280;62035;52.094;5.112;2022-07-19T04:17:51;101799.81;;;23.60;100.00
62031;BME280;62035;52.094;5.112;2022-07-19T04:20:19;101798.19;;;23.59;100.00
62031;BME280;62035;52.094;5.112;2022-07-19T04:22:46;101803.97;;;23.76;100.00
62031;BME280;62035;52.094;5.112;2022-07-19T04:25:14;101796.63;;;23.89;99.64
62031;BME280;62035;52.094;5.112;2022-07-19T04:27:42;101801.22;;;23.96;99.18
62031;BME280;62035;52.094;5.112;2022-07-19T04:30:10;101798.91;;;23.99;98.55
62031;BME280;62035;52.094;5.112;2022-07-19T04:32:39;101803.03;;;24.02;97.78
62031;BME280;62035;52.094;5.112;2022-07-19T04:35:07;101794.38;;;24.24;95.88
62031;BME280;62035;52.094;5.112;2022-07-19T04:37:35;101794.00;;;24.27;95.93
62031;BME280;62035;52.094;5.112;2022-07-19T04:40:04;101792.72;;;24.30;96.79
62031;BME280;62035;52.094;5.112;2022-07-19T04:42:32;101794.13;;;24.39;94.70
62031;BME280;62035;52.094;5.112;2022-07-19T04:45:00;101797.47;;;24.41;94.23
62031;BME280;62035;52.094;5.112;2022-07-19T04:47:27;101797.09;;;24.38;93.99
62031;BME280;62035;52.094;5.112;2022-07-19T04:49:56;101794.50;;;24.49;94.36
62031;BME280;62035;52.094;5.112;2022-07-19T04:52:24;101794.03;;;24.59;92.74
62031;BME280;62035;52.094;5.112;2022-07-19T04:54:51;101797.75;;;24.65;92.26
62031;BME280;62035;52.094;5.112;2022-07-19T04:57:19;101786.88;;;24.89;90.90
62031;BME280;62035;52.094;5.112;2022-07-19T04:59:46;101787.88;;;25.02;89.98
62031;BME280;62035;52.094;5.112;2022-07-19T05:02:14;101794.94;;;25.09;89.14
62031;BME280;62035;52.094;5.112;2022-07-19T05:04:41;101793.94;;;25.04;88.83
62031;BME280;62035;52.094;5.112;2022-07-19T05:07:10;101793.53;;;25.25;88.64
62031;BME280;62035;52.094;5.112;2022-07-19T05:09:38;101792.66;;;25.31;87.35
62031;BME280;62035;52.094;5.112;2022-07-19T05:12:05;101792.09;;;25.47;86.52
62031;BME280;62035;52.094;5.112;2022-07-19T05:14:35;101797.47;;;25.54;86.31
62031;BME280;62035;52.094;5.112;2022-07-19T05:17:02;101793.88;;;25.78;85.76
62031;BME280;62035;52.094;5.112;2022-07-19T05:19:30;101787.38;;;26.76;81.37
62031;BME280;62035;52.094;5.112;2022-07-19T05:21:57;101791.63;;;27.60;76.47
62031;BME280;62035;52.094;5.112;2022-07-19T05:24:26;101794.25;;;28.18;72.29
62031;BME280;62035;52.094;5.112;2022-07-19T05:26:54;101787.75;;;28.93;66.60
62031;BME280;62035;52.094;5.112;2022-07-19T05:29:21;101780.84;;;29.41;64.31
62031;BME280;62035;52.094;5.112;2022-07-19T05:31:49;101784.66;;;29.78;62.57
62031;BME280;62035;52.094;5.112;2022-07-19T05:34:17;101781.03;;;29.95;60.22
62031;BME280;62035;52.094;5.112;2022-07-19T05:36:44;101781.78;;;30.34;58.12
62031;BME280;62035;52.094;5.112;2022-07-19T05:39:12;101779.81;;;30.83;55.05
62031;BME280;62035;52.094;5.112;2022-07-19T05:41:42;101785.06;;;31.16;53.71
62031;BME280;62035;52.094;5.112;2022-07-19T05:44:10;101785.09;;;31.22;53.28
62031;BME280;62035;52.094;5.112;2022-07-19T05:46:37;101775.88;;;31.43;52.32
62031;BME280;62035;52.094;5.112;2022-07-19T05:49:07;101793.84;;;31.61;50.06
62031;BME280;62035;52.094;5.112;2022-07-19T05:51:35;101784.34;;;31.78;49.00
62031;BME280;62035;52.094;5.112;2022-07-19T05:54:03;101794.81;;;31.76;48.70
62031;BME280;62035;52.094;5.112;2022-07-19T05:56:31;101789.13;;;31.98;48.48
62031;BME280;62035;52.094;5.112;2022-07-19T05:59:01;101781.88;;;31.77;48.19
62031;BME280;62035;52.094;5.112;2022-07-19T06:01:28;101787.13;;;31.83;47.99
62031;BME280;62035;52.094;5.112;2022-07-19T06:03:58;101794.19;;;32.22;47.91
62031;BME280;62035;52.094;5.112;2022-07-19T06:06:30;101788.38;;;32.18;46.53
62031;BME280;62035;52.094;5.112;2022-07-19T06:09:00;101793.84;;;32.08;47.30
62031;BME280;62035;52.094;5.112;2022-07-19T06:11:28;101785.97;;;32.32;46.07
62031;BME280;62035;52.094;5.112;2022-07-19T06:13:56;101791.19;;;32.43;46.77
62031;BME280;62035;52.094;5.112;2022-07-19T06:16:26;101799.81;;;32.72;45.48
62031;BME280;62035;52.094;5.112;2022-07-19T06:18:54;101794.56;;;32.66;45.40
62031;BME280;62035;52.094;5.112;2022-07-19T06:21:22;101792.09;;;32.74;44.77
62031;BME280;62035;52.094;5.112;2022-07-19T06:23:50;101791.19;;;32.33;45.98
62031;BME280;62035;52.094;5.112;2022-07-19T06:26:18;101791.09;;;32.13;46.07
62031;BME280;62035;52.094;5.112;2022-07-19T06:28:46;101779.50;;;32.06;45.98
62031;BME280;62035;52.094;5.112;2022-07-19T06:31:14;101788.84;;;32.05;45.52
62031;BME280;62035;52.094;5.112;2022-07-19T06:33:46;101793.59;;;31.57;47.17
62031;BME280;62035;52.094;5.112;2022-07-19T06:36:17;101792.13;;;31.07;47.83
62031;BME280;62035;52.094;5.112;2022-07-19T06:38:45;101796.59;;;31.13;48.73
62031;BME280;62035;52.094;5.112;2022-07-19T06:41:14;101796.78;;;30.75;50.71
62031;BME280;62035;52.094;5.112;2022-07-19T06:43:43;101793.44;;;31.00;51.51
62031;BME280;62035;52.094;5.112;2022-07-19T06:46:10;101798.16;;;30.72;52.10
62031;BME280;62035;52.094;5.112;2022-07-19T06:48:38;101794.41;;;31.15;52.47
62031;BME280;62035;52.094;5.112;2022-07-19T06:51:07;101778.22;;;31.24;51.48
62031;BME280;62035;52.094;5.112;2022-07-19T06:53:35;101789.09;;;31.09;52.52
62031;BME280;62035;52.094;5.112;2022-07-19T06:56:04;101791.59;;;31.10;52.69
62031;BME280;62035;52.094;5.112;2022-07-19T06:58:32;101783.28;;;31.37;52.77
62031;BME280;62035;52.094;5.112;2022-07-19T07:01:00;101767.56;;;31.33;53.62
62031;BME280;62035;52.094;5.112;2022-07-19T07:03:29;101779.50;;;31.48;53.81
62031;BME280;62035;52.094;5.112;2022-07-19T07:05:56;101779.41;;;31.33;54.29
62031;BME280;62035;52.094;5.112;2022-07-19T07:08:25;101781.41;;;31.48;55.18
62031;BME280;62035;52.094;5.112;2022-07-19T07:10:53;101780.41;;;31.64;54.78
62031;BME280;62035;52.094;5.112;2022-07-19T07:13:20;101776.81;;;31.64;54.96
62031;BME280;62035;52.094;5.112;2022-07-19T07:15:48;101768.72;;;31.42;55.01
62031;BME280;62035;52.094;5.112;2022-07-19T07:18:15;101771.41;;;31.32;55.81
62031;BME280;62035;52.094;5.112;2022-07-19T07:20:43;101769.19;;;31.29;56.09
62031;BME280;62035;52.094;5.112;2022-07-19T07:23:10;101774.34;;;31.15;56.10
62031;BME280;62035;52.094;5.112;2022-07-19T07:25:39;101769.97;;;31.24;55.35
62031;BME280;62035;52.094;5.112;2022-07-19T07:28:07;101769.81;;;31.04;56.23
62031;BME280;62035;52.094;5.112;2022-07-19T07:30:34;101761.34;;;31.10;56.55
62031;BME280;62035;52.094;5.112;2022-07-19T07:33:02;101737.53;;;30.89;56.80
62031;BME280;62035;52.094;5.112;2022-07-19T07:35:30;101758.91;;;30.82;57.42
62031;BME280;62035;52.094;5.112;2022-07-19T07:37:57;101760.53;;;30.78;57.23
62031;BME280;62035;52.094;5.112;2022-07-19T07:40:25;101756.06;;;31.04;57.18
62031;BME280;62035;52.094;5.112;2022-07-19T07:42:53;101758.00;;;31.03;57.05
62031;BME280;62035;52.094;5.112;2022-07-19T07:45:21;101759.00;;;31.29;56.94
62031;BME280;62035;52.094;5.112;2022-07-19T07:47:49;101752.69;;;31.29;57.69
62031;BME280;62035;52.094;5.112;2022-07-19T07:50:16;101756.06;;;31.41;57.45
62031;BME280;62035;52.094;5.112;2022-07-19T07:52:44;101763.22;;;31.42;57.89
62031;BME280;62035;52.094;5.112;2022-07-19T07:55:11;101756.88;;;31.36;58.94
62031;BME280;62035;52.094;5.112;2022-07-19T07:57:39;101763.53;;;31.45;59.39
62031;BME280;62035;52.094;5.112;2022-07-19T08:00:11;101757.22;;;31.50;59.30
62031;BME280;62035;52.094;5.112;2022-07-19T08:02:40;101754.03;;;31.68;58.54
62031;BME280;62035;52.094;5.112;2022-07-19T08:05:10;101766.13;;;31.67;56.88
62031;BME280;62035;52.094;5.112;2022-07-19T08:07:38;101749.00;;;31.55;58.32
62031;BME280;62035;52.094;5.112;2022-07-19T08:10:08;101744.88;;;31.63;58.21
62031;BME280;62035;52.094;5.112;2022-07-19T08:12:36;101748.88;;;31.87;58.27
62031;BME280;62035;52.094;5.112;2022-07-19T08:15:05;101754.16;;;31.99;57.95
62031;BME280;62035;52.094;5.112;2022-07-19T08:17:35;101742.19;;;31.68;58.90
62031;BME280;62035;52.094;5.112;2022-07-19T08:20:04;101738.47;;;31.94;58.62
62031;BME280;62035;52.094;5.112;2022-07-19T08:22:33;101753.06;;;32.05;58.46
62031;BME280;62035;52.094;5.112;2022-07-19T08:25:00;101746.22;;;32.17;58.57
62031;BME280;62035;52.094;5.112;2022-07-19T08:27:28;101752.81;;;32.16;57.14
62031;BME280;62035;52.094;5.112;2022-07-19T08:29:56;101743.09;;;31.83;57.16
62031;BME280;62035;52.094;5.112;2022-07-19T08:32:23;101743.44;;;31.97;57.75
62031;BME280;62035;52.094;5.112;2022-07-19T08:34:53;101745.34;;;31.92;57.86
62031;BME280;62035;52.094;5.112;2022-07-19T08:37:20;101739.28;;;32.00;58.18
62031;BME280;62035;52.094;5.112;2022-07-19T08:39:48;101737.09;;;32.07;58.76
62031;BME280;62035;52.094;5.112;2022-07-19T08:42:18;101742.16;;;32.30;57.99
62031;BME280;62035;52.094;5.112;2022-07-19T08:44:47;101734.19;;;32.54;57.94
62031;BME280;62035;52.094;5.112;2022-07-19T08:47:18;101733.34;;;32.59;58.31
62031;BME280;62035;52.094;5.112;2022-07-19T08:49:46;101735.03;;;32.80;58.08
62031;BME280;62035;52.094;5.112;2022-07-19T08:52:16;101727.03;;;32.84;58.28
62031;BME280;62035;52.094;5.112;2022-07-19T08:54:45;101725.66;;;32.96;58.51
62031;BME280;62035;52.094;5.112;2022-07-19T08:57:13;101720.13;;;33.06;58.62
62031;BME280;62035;52.094;5.112;2022-07-19T08:59:59;101723.72;;;33.07;55.97
62031;BME280;62035;52.094;5.112;2022-07-19T09:02:26;101729.22;;;33.02;55.14
62031;BME280;62035;52.094;5.112;2022-07-19T09:05:00;101725.09;;;32.89;55.37
62031;BME280;62035;52.094;5.112;2022-07-19T09:07:32;101727.59;;;32.91;54.74
62031;BME280;62035;52.094;5.112;2022-07-19T09:10:17;101734.47;;;33.08;54.72
62031;BME280;62035;52.094;5.112;2022-07-19T09:12:57;101731.66;;;33.39;54.87
62031;BME280;62035;52.094;5.112;2022-07-19T09:15:45;101722.50;;;33.54;54.33
62031;BME280;62035;52.094;5.112;2022-07-19T09:18:18;101728.03;;;33.54;54.14
62031;BME280;62035;52.094;5.112;2022-07-19T09:20:50;101720.84;;;33.53;55.47
62031;BME280;62035;52.094;5.112;2022-07-19T09:23:21;101725.44;;;33.83;53.66
62031;BME280;62035;52.094;5.112;2022-07-19T09:25:50;101719.94;;;33.72;53.47
62031;BME280;62035;52.094;5.112;2022-07-19T09:28:20;101727.72;;;33.60;53.30
62031;BME280;62035;52.094;5.112;2022-07-19T09:30:51;101728.25;;;33.62;53.23
62031;BME280;62035;52.094;5.112;2022-07-19T09:33:22;101714.13;;;33.79;52.29
62031;BME280;62035;52.094;5.112;2022-07-19T09:35:52;101714.38;;;33.77;50.33
62031;BME280;62035;52.094;5.112;2022-07-19T09:38:26;101716.19;;;34.07;48.87
62031;BME280;62035;52.094;5.112;2022-07-19T09:41:08;101716.59;;;34.35;48.23
62031;BME280;62035;52.094;5.112;2022-07-19T09:43:50;101695.13;;;34.56;47.32
62031;BME280;62035;52.094;5.112;2022-07-19T09:46:30;101693.28;;;34.46;47.07
62031;BME280;62035;52.094;5.112;2022-07-19T09:49:03;101702.69;;;34.45;47.99
62031;BME280;62035;52.094;5.112;2022-07-19T09:51:35;101697.44;;;34.43;48.18
62031;BME280;62035;52.094;5.112;2022-07-19T09:54:07;101703.31;;;34.37;46.70
62031;BME280;62035;52.094;5.112;2022-07-19T09:56:38;101705.78;;;34.38;46.13
62031;BME280;62035;52.094;5.112;2022-07-19T09:59:07;101697.91;;;34.56;46.62
62031;BME280;62035;52.094;5.112;2022-07-19T10:01:36;101695.78;;;34.76;44.83
62031;BME280;62035;52.094;5.112;2022-07-19T10:04:07;101698.19;;;34.88;44.60
62031;BME280;62035;52.094;5.112;2022-07-19T10:06:37;101687.31;;;34.97;43.67
62031;BME280;62035;52.094;5.112;2022-07-19T10:09:09;101682.88;;;34.96;42.03
62031;BME280;62035;52.094;5.112;2022-07-19T10:11:38;101685.06;;;34.99;42.73
62031;BME280;62035;52.094;5.112;2022-07-19T10:14:06;101687.25;;;35.02;41.46
62031;BME280;62035;52.094;5.112;2022-07-19T10:16:50;101682.97;;;35.15;40.22
62031;BME280;62035;52.094;5.112;2022-07-19T10:19:38;101677.09;;;35.64;39.70
62031;BME280;62035;52.094;5.112;2022-07-19T10:22:09;101657.44;;;35.65;37.98
62031;BME280;62035;52.094;5.112;2022-07-19T10:24:49;101675.09;;;35.69;37.57
62031;BME280;62035;52.094;5.112;2022-07-19T10:27:35;101674.63;;;35.62;36.83
62031;BME280;62035;52.094;5.112;2022-07-19T10:30:17;101675.75;;;35.61;36.18
62031;BME280;62035;52.094;5.112;2022-07-19T10:32:48;101680.47;;;35.85;35.90
62031;BME280;62035;52.094;5.112;2022-07-19T10:35:18;101661.31;;;35.88;35.85
62031;BME280;62035;52.094;5.112;2022-07-19T10:37:49;101674.91;;;36.03;36.77
62031;BME280;62035;52.094;5.112;2022-07-19T10:40:40;101663.00;;;36.03;36.95
62031;BME280;62035;52.094;5.112;2022-07-19T10:43:11;101672.09;;;36.27;36.44
62031;BME280;62035;52.094;5.112;2022-07-19T10:45:41;101637.09;;;36.13;35.58
62031;BME280;62035;52.094;5.112;2022-07-19T10:48:14;101669.97;;;36.19;35.73
62031;BME280;62035;52.094;5.112;2022-07-19T10:50:54;101650.66;;;36.47;35.81
62031;BME280;62035;52.094;5.112;2022-07-19T10:53:57;101643.22;;;36.61;35.86
62031;BME280;62035;52.094;5.112;2022-07-19T10:56:40;101655.69;;;36.45;36.27
62031;BME280;62035;52.094;5.112;2022-07-19T10:59:39;101649.34;;;36.90;36.10
62031;BME280;62035;52.094;5.112;2022-07-19T11:02:22;101649.75;;;36.97;35.33
62031;BME280;62035;52.094;5.112;2022-07-19T11:04:51;101642.16;;;37.17;34.51
62031;BME280;62035;52.094;5.112;2022-07-19T11:07:21;101643.59;;;37.00;34.93
62031;BME280;62035;52.094;5.112;2022-07-19T11:09:52;101630.25;;;37.30;34.15
62031;BME280;62035;52.094;5.112;2022-07-19T11:12:41;101630.63;;;37.51;33.22
62031;BME280;62035;52.094;5.112;2022-07-19T11:15:11;101628.75;;;37.60;32.44
62031;BME280;62035;52.094;5.112;2022-07-19T11:17:38;101618.06;;;37.67;32.36
62031;BME280;62035;52.094;5.112;2022-07-19T11:20:09;101620.50;;;37.82;32.08
62031;BME280;62035;52.094;5.112;2022-07-19T11:22:40;101621.09;;;37.93;31.68
62031;BME280;62035;52.094;5.112;2022-07-19T11:25:10;101617.97;;;37.94;32.67
62031;BME280;62035;52.094;5.112;2022-07-19T11:27:41;101607.09;;;37.84;33.07
62031;BME280;62035;52.094;5.112;2022-07-19T11:30:11;101610.81;;;37.80;32.83
62031;BME280;62035;52.094;5.112;2022-07-19T11:32:40;101617.72;;;38.04;33.39
62031;BME280;62035;52.094;5.112;2022-07-19T11:35:10;101615.47;;;38.29;32.72
62031;BME280;62035;52.094;5.112;2022-07-19T11:37:41;101607.41;;;38.05;33.10
62031;BME280;62035;52.094;5.112;2022-07-19T11:40:10;101609.72;;;38.25;33.33
62031;BME280;62035;52.094;5.112;2022-07-19T11:42:42;101606.59;;;38.80;33.13
62031;BME280;62035;52.094;5.112;2022-07-19T11:45:13;101604.44;;;38.68;32.59
62031;BME280;62035;52.094;5.112;2022-07-19T11:47:43;101599.59;;;38.91;32.77
62031;BME280;62035;52.094;5.112;2022-07-19T11:50:13;101598.06;;;39.16;32.36
62031;BME280;62035;52.094;5.112;2022-07-19T11:52:44;101595.34;;;39.59;31.43
62031;BME280;62035;52.094;5.112;2022-07-19T11:55:18;101593.16;;;39.30;31.62
62031;BME280;62035;52.094;5.112;2022-07-19T11:57:49;101592.84;;;39.41;32.21
62031;BME280;62035;52.094;5.112;2022-07-19T12:00:18;101588.41;;;39.31;32.19
62031;BME280;62035;52.094;5.112;2022-07-19T12:02:55;101590.25;;;40.13;31.60
62031;BME280;62035;52.094;5.112;2022-07-19T12:05:30;101582.78;;;40.52;29.98
62031;BME280;62035;52.094;5.112;2022-07-19T12:08:01;101583.34;;;40.19;29.55
62031;BME280;62035;52.094;5.112;2022-07-19T12:10:42;101581.44;;;40.75;29.78
62031;BME280;62035;52.094;5.112;2022-07-19T12:13:14;101582.94;;;40.55;29.69
62031;BME280;62035;52.094;5.112;2022-07-19T12:15:51;101579.88;;;40.40;30.38
62031;BME280;62035;52.094;5.112;2022-07-19T12:18:21;101572.34;;;40.31;29.80
62031;BME280;62035;52.094;5.112;2022-07-19T12:21:16;101563.41;;;40.93;29.53
62031;BME280;62035;52.094;5.112;2022-07-19T12:24:07;101564.47;;;41.10;29.02
62031;BME280;62035;52.094;5.112;2022-07-19T12:26:56;101560.09;;;41.00;28.29
62031;BME280;62035;52.094;5.112;2022-07-19T12:29:29;101560.47;;;40.52;29.48
62031;BME280;62035;52.094;5.112;2022-07-19T12:32:00;101558.50;;;41.20;28.84
62031;BME280;62035;52.094;5.112;2022-07-19T12:34:41;101556.72;;;40.86;28.19
62031;BME280;62035;52.094;5.112;2022-07-19T12:37:18;101548.25;;;41.03;28.51
62031;BME280;62035;52.094;5.112;2022-07-19T12:39:57;101549.84;;;40.83;28.84
62031;BME280;62035;52.094;5.112;2022-07-19T12:42:38;101542.34;;;40.75;28.03
62031;BME280;62035;52.094;5.112;2022-07-19T12:45:11;101544.53;;;40.90;27.53
62031;BME280;62035;52.094;5.112;2022-07-19T12:47:42;101537.25;;;41.48;27.43
62031;BME280;62035;52.094;5.112;2022-07-19T12:50:19;101538.63;;;41.63;26.97
62031;BME280;62035;52.094;5.112;2022-07-19T12:52:48;101531.88;;;41.97;26.76
62031;BME280;62035;52.094;5.112;2022-07-19T12:55:15;101526.13;;;41.60;25.79
62031;BME280;62035;52.094;5.112;2022-07-19T12:57:43;101521.56;;;41.56;26.17
62031;BME280;62035;52.094;5.112;2022-07-19T13:00:14;101527.97;;;41.77;25.55
62031;BME280;62035;52.094;5.112;2022-07-19T13:02:42;101526.06;;;41.69;25.04
62031;BME280;62035;52.094;5.112;2022-07-19T13:05:10;101523.34;;;41.60;25.28